sensor_id;sensor_type;location;lat;lon;timestamp;temperature;humidity
20231;DHT22;10274;49.022;9.338;2022-09-17T00:00:18;9.00;99.90
20231;DHT22;10274;49.022;9.338;2022-09-17T00:02:48;8.90;99.90
20231;DHT22;10274;49.022;9.338;2022-09-17T00:05:16;8.90;99.90
20231;DHT22;10274;49.022;9.338;2022-09-17T00:07:43;9.00;99.90
20231;DHT22;10274;49.022;9.338;2022-09-17T00:10:10;9.10;99.90
20231;DHT22;10274;49.022;9.338;2022-09-17T00:12:38;9.20;99.90
20231;DHT22;10274;49.022;9.338;2022-09-17T00:15:05;9.40;99.90
20231;DHT22;10274;49.022;9.338;2022-09-17T00:17:32;9.40;99.90
20231;DHT22;10274;49.022;9.338;2022-09-17T00:19:59;9.50;99.90
20231;DHT22;10274;49.022;9.338;2022-09-17T00:22:26;9.60;99.90
20231;DHT22;10274;49.022;9.338;2022-09-17T00:24:53;9.60;99.90
20231;DHT22;10274;49.022;9.338;2022-09-17T00:27:20;9.50;99.90
20231;DHT22;10274;49.022;9.338;2022-09-17T00:29:48;9.30;99.90
20231;DHT22;10274;49.022;9.338;2022-09-17T00:32:15;9.20;99.90
20231;DHT22;10274;49.022;9.338;2022-09-17T00:34:41;9.10;99.90
20231;DHT22;10274;49.022;9.338;2022-09-17T00:37:08;9.00;99.90
20231;DHT22;10274;49.022;9.338;2022-09-17T00:39:35;9.00;99.90
20231;DHT22;10274;49.022;9.338;2022-09-17T00:42:02;9.00;99.90
20231;DHT22;10274;49.022;9.338;2022-09-17T00:44:44;9.00;99.90
20231;DHT22;10274;49.022;9.338;2022-09-17T00:47:17;9.10;99.90
20231;DHT22;10274;49.022;9.338;2022-09-17T00:49:45;9.20;99.90
20231;DHT22;10274;49.022;9.338;2022-09-17T00:52:15;9.20;99.90
20231;DHT22;10274;49.022;9.338;2022-09-17T00:54:47;9.20;99.90
20231;DHT22;10274;49.022;9.338;2022-09-17T00:57:16;9.20;99.90
20231;DHT22;10274;49.022;9.338;2022-09-17T00:59:43;9.10;99.90
20231;DHT22;10274;49.022;9.338;2022-09-17T01:02:10;9.20;99.90
20231;DHT22;10274;49.022;9.338;2022-09-17T01:04:38;9.20;99.90
20231;DHT22;10274;49.022;9.338;2022-09-17T01:07:10;9.30;99.90
20231;DHT22;10274;49.022;9.338;2022-09-17T01:09:45;9.20;99.90
20231;DHT22;10274;49.022;9.338;2022-09-17T01:12:41;9.40;99.90
20231;DHT22;10274;49.022;9.338;2022-09-17T01:15:20;9.30;99.90
20231;DHT22;10274;49.022;9.338;2022-09-17T01:17:57;9.20;99.90
20231;DHT22;10274;49.022;9.338;2022-09-17T01:23:37;9.10;99.90
20231;DHT22;10274;49.022;9.338;2022-09-17T01:26:36;9.00;99.90
20231;DHT22;10274;49.022;9.338;2022-09-17T01:29:16;9.00;99.90
20231;DHT22;10274;49.022;9.338;2022-09-17T01:31:52;9.10;99.90
20231;DHT22;10274;49.022;9.338;2022-09-17T01:34:25;9.20;99.90
20231;DHT22;10274;49.022;9.338;2022-09-17T01:37:01;9.30;99.90
20231;DHT22;10274;49.022;9.338;2022-09-17T01:39:35;9.30;99.90
20231;DHT22;10274;49.022;9.338;2022-09-17T01:42:12;9.40;99.90
20231;DHT22;10274;49.022;9.338;2022-09-17T01:44:46;9.40;99.90
20231;DHT22;10274;49.022;9.338;2022-09-17T01:47:21;9.50;99.90
20231;DHT22;10274;49.022;9.338;2022-09-17T01:49:51;9.40;99.90
20231;DHT22;10274;49.022;9.338;2022-09-17T01:52:19;9.40;99.90
20231;DHT22;10274;49.022;9.338;2022-09-17T01:54:49;9.30;99.90
20231;DHT22;10274;49.022;9.338;2022-09-17T01:57:20;9.30;99.90
20231;DHT22;10274;49.022;9.338;2022-09-17T01:59:51;9.10;99.90
20231;DHT22;10274;49.022;9.338;2022-09-17T02:02:26;9.20;99.90
20231;DHT22;10274;49.022;9.338;2022-09-17T02:04:57;9.20;99.90
20231;DHT22;10274;49.022;9.338;2022-09-17T02:07:26;9.20;99.90
20231;DHT22;10274;49.022;9.338;2022-09-17T02:09:59;9.20;99.90
20231;DHT22;10274;49.022;9.338;2022-09-17T02:12:31;9.30;99.90
20231;DHT22;10274;49.022;9.338;2022-09-17T02:15:01;9.30;99.90
20231;DHT22;10274;49.022;9.338;2022-09-17T02:17:33;9.30;99.90
20231;DHT22;10274;49.022;9.338;2022-09-17T02:20:03;9.30;99.90
20231;DHT22;10274;49.022;9.338;2022-09-17T02:22:36;9.40;99.90
20231;DHT22;10274;49.022;9.338;2022-09-17T02:25:09;9.40;99.90
20231;DHT22;10274;49.022;9.338;2022-09-17T02:27:45;9.40;99.90
20231;DHT22;10274;49.022;9.338;2022-09-17T02:30:13;9.40;99.90
20231;DHT22;10274;49.022;9.338;2022-09-17T02:32:42;9.50;99.90
20231;DHT22;10274;49.022;9.338;2022-09-17T02:35:09;9.50;99.90
20231;DHT22;10274;49.022;9.338;2022-09-17T02:37:38;9.50;99.90
20231;DHT22;10274;49.022;9.338;2022-09-17T02:40:06;9.60;99.90
20231;DHT22;10274;49.022;9.338;2022-09-17T02:42:44;9.50;99.90
20231;DHT22;10274;49.022;9.338;2022-09-17T02:45:18;9.50;99.90
20231;DHT22;10274;49.022;9.338;2022-09-17T02:51:00;9.60;99.90
20231;DHT22;10274;49.022;9.338;2022-09-17T02:53:36;9.60;99.90
20231;DHT22;10274;49.022;9.338;2022-09-17T02:56:11;9.60;99.90
20231;DHT22;10274;49.022;9.338;2022-09-17T02:58:45;9.60;99.90
20231;DHT22;10274;49.022;9.338;2022-09-17T03:01:16;9.60;99.90
20231;DHT22;10274;49.022;9.338;2022-09-17T03:03:48;9.60;99.90
20231;DHT22;10274;49.022;9.338;2022-09-17T03:06:16;9.70;99.90
20231;DHT22;10274;49.022;9.338;2022-09-17T03:08:43;9.60;99.90
20231;DHT22;10274;49.022;9.338;2022-09-17T03:11:12;9.70;99.90
20231;DHT22;10274;49.022;9.338;2022-09-17T03:13:39;9.80;99.90
20231;DHT22;10274;49.022;9.338;2022-09-17T03:16:06;9.80;99.90
20231;DHT22;10274;49.022;9.338;2022-09-17T03:18:33;9.90;99.90
20231;DHT22;10274;49.022;9.338;2022-09-17T03:21:01;9.90;99.90
20231;DHT22;10274;49.022;9.338;2022-09-17T03:23:27;9.90;99.90
20231;DHT22;10274;49.022;9.338;2022-09-17T03:25:54;9.80;99.90
20231;DHT22;10274;49.022;9.338;2022-09-17T03:28:21;9.60;99.90
20231;DHT22;10274;49.022;9.338;2022-09-17T03:30:49;9.60;99.90
20231;DHT22;10274;49.022;9.338;2022-09-17T03:33:16;9.50;99.90
20231;DHT22;10274;49.022;9.338;2022-09-17T03:35:43;9.60;99.90
20231;DHT22;10274;49.022;9.338;2022-09-17T03:38:11;9.60;99.90
20231;DHT22;10274;49.022;9.338;2022-09-17T03:40:38;9.60;99.90
20231;DHT22;10274;49.022;9.338;2022-09-17T03:43:05;9.60;99.90
20231;DHT22;10274;49.022;9.338;2022-09-17T03:45:32;9.60;99.90
20231;DHT22;10274;49.022;9.338;2022-09-17T03:47:58;9.70;99.90
20231;DHT22;10274;49.022;9.338;2022-09-17T03:50:25;9.70;99.90
20231;DHT22;10274;49.022;9.338;2022-09-17T03:52:52;9.60;99.90
20231;DHT22;10274;49.022;9.338;2022-09-17T03:55:20;9.60;99.90
20231;DHT22;10274;49.022;9.338;2022-09-17T03:57:47;9.60;99.90
20231;DHT22;10274;49.022;9.338;2022-09-17T04:00:14;9.50;99.90
20231;DHT22;10274;49.022;9.338;2022-09-17T04:02:41;9.50;99.90
20231;DHT22;10274;49.022;9.338;2022-09-17T04:05:08;9.60;99.90
20231;DHT22;10274;49.022;9.338;2022-09-17T04:07:35;9.70;99.90
20231;DHT22;10274;49.022;9.338;2022-09-17T04:10:03;9.70;99.90
20231;DHT22;10274;49.022;9.338;2022-09-17T04:12:32;9.70;99.90
20231;DHT22;10274;49.022;9.338;2022-09-17T04:14:58;9.70;99.90
20231;DHT22;10274;49.022;9.338;2022-09-17T04:17:26;9.70;99.90
20231;DHT22;10274;49.022;9.338;2022-09-17T04:19:53;9.70;99.90
20231;DHT22;10274;49.022;9.338;2022-09-17T04:22:19;9.70;99.90
20231;DHT22;10274;49.022;9.338;2022-09-17T04:24:46;9.80;99.90
20231;DHT22;10274;49.022;9.338;2022-09-17T04:27:13;9.70;99.90
20231;DHT22;10274;49.022;9.338;2022-09-17T04:29:41;9.70;99.90
20231;DHT22;10274;49.022;9.338;2022-09-17T04:32:07;9.70;99.90
20231;DHT22;10274;49.022;9.338;2022-09-17T04:34:34;9.70;99.90
20231;DHT22;10274;49.022;9.338;2022-09-17T04:37:01;9.80;99.90
20231;DHT22;10274;49.022;9.338;2022-09-17T04:39:27;9.80;99.90
20231;DHT22;10274;49.022;9.338;2022-09-17T04:41:54;9.80;99.90
20231;DHT22;10274;49.022;9.338;2022-09-17T04:44:21;9.70;99.90
20231;DHT22;10274;49.022;9.338;2022-09-17T04:46:49;9.70;81.90
20231;DHT22;10274;49.022;9.338;2022-09-17T04:49:15;9.70;99.90
20231;DHT22;10274;49.022;9.338;2022-09-17T04:51:42;9.60;93.50
20231;DHT22;10274;49.022;9.338;2022-09-17T04:54:09;9.70;99.90
20231;DHT22;10274;49.022;9.338;2022-09-17T04:56:35;9.70;92.60
20231;DHT22;10274;49.022;9.338;2022-09-17T04:59:02;9.60;99.90
20231;DHT22;10274;49.022;9.338;2022-09-17T05:01:29;9.70;99.90
20231;DHT22;10274;49.022;9.338;2022-09-17T05:03:57;9.60;96.90
20231;DHT22;10274;49.022;9.338;2022-09-17T05:06:23;9.70;99.90
20231;DHT22;10274;49.022;9.338;2022-09-17T05:08:50;9.60;97.30
20231;DHT22;10274;49.022;9.338;2022-09-17T05:11:17;9.70;93.40
20231;DHT22;10274;49.022;9.338;2022-09-17T05:13:43;9.70;90.00
20231;DHT22;10274;49.022;9.338;2022-09-17T05:16:10;9.70;87.60
20231;DHT22;10274;49.022;9.338;2022-09-17T05:18:37;9.70;97.30
20231;DHT22;10274;49.022;9.338;2022-09-17T05:21:05;9.70;90.90
20231;DHT22;10274;49.022;9.338;2022-09-17T05:23:31;9.70;71.60
20231;DHT22;10274;49.022;9.338;2022-09-17T05:25:58;9.70;90.80
20231;DHT22;10274;49.022;9.338;2022-09-17T05:28:25;9.70;69.50
20231;DHT22;10274;49.022;9.338;2022-09-17T05:30:52;9.80;90.20
20231;DHT22;10274;49.022;9.338;2022-09-17T05:33:19;9.80;72.20
20231;DHT22;10274;49.022;9.338;2022-09-17T05:35:45;9.80;91.90
20231;DHT22;10274;49.022;9.338;2022-09-17T05:38:13;9.80;76.60
20231;DHT22;10274;49.022;9.338;2022-09-17T05:40:42;9.80;75.40
20231;DHT22;10274;49.022;9.338;2022-09-17T05:43:10;9.90;90.10
20231;DHT22;10274;49.022;9.338;2022-09-17T05:45:37;9.90;82.80
20231;DHT22;10274;49.022;9.338;2022-09-17T05:48:06;9.80;48.80
20231;DHT22;10274;49.022;9.338;2022-09-17T05:50:35;9.80;56.50
20231;DHT22;10274;49.022;9.338;2022-09-17T05:53:05;9.80;56.00
20231;DHT22;10274;49.022;9.338;2022-09-17T05:55:33;9.90;74.00
20231;DHT22;10274;49.022;9.338;2022-09-17T05:58:08;9.80;38.40
20231;DHT22;10274;49.022;9.338;2022-09-17T06:00:35;9.80;62.50
20231;DHT22;10274;49.022;9.338;2022-09-17T06:03:02;9.90;57.80
20231;DHT22;10274;49.022;9.338;2022-09-17T06:05:28;9.80;62.10
20231;DHT22;10274;49.022;9.338;2022-09-17T06:07:55;9.90;55.70
20231;DHT22;10274;49.022;9.338;2022-09-17T06:10:22;9.90;27.40
20231;DHT22;10274;49.022;9.338;2022-09-17T06:12:54;9.80;27.80
20231;DHT22;10274;49.022;9.338;2022-09-17T06:15:21;9.80;55.60
20231;DHT22;10274;49.022;9.338;2022-09-17T06:17:48;9.90;42.20
20231;DHT22;10274;49.022;9.338;2022-09-17T06:20:14;9.90;46.40
20231;DHT22;10274;49.022;9.338;2022-09-17T06:22:41;10.00;71.10
20231;DHT22;10274;49.022;9.338;2022-09-17T06:25:08;10.00;77.90
20231;DHT22;10274;49.022;9.338;2022-09-17T06:27:35;9.90;46.00
20231;DHT22;10274;49.022;9.338;2022-09-17T06:30:04;9.90;35.60
20231;DHT22;10274;49.022;9.338;2022-09-17T06:32:31;10.00;45.80
20231;DHT22;10274;49.022;9.338;2022-09-17T06:34:58;10.00;33.90
20231;DHT22;10274;49.022;9.338;2022-09-17T06:37:27;10.00;49.30
20231;DHT22;10274;49.022;9.338;2022-09-17T06:39:54;10.00;22.60
20231;DHT22;10274;49.022;9.338;2022-09-17T06:42:20;10.00;36.50
20231;DHT22;10274;49.022;9.338;2022-09-17T06:44:47;10.50;49.50
20231;DHT22;10274;49.022;9.338;2022-09-17T06:47:15;10.10;31.90
20231;DHT22;10274;49.022;9.338;2022-09-17T06:49:42;10.10;53.20
20231;DHT22;10274;49.022;9.338;2022-09-17T06:52:09;10.20;44.40
20231;DHT22;10274;49.022;9.338;2022-09-17T06:54:35;10.10;36.80
20231;DHT22;10274;49.022;9.338;2022-09-17T06:57:02;10.10;27.50
20231;DHT22;10274;49.022;9.338;2022-09-17T06:59:29;10.20;52.90
20231;DHT22;10274;49.022;9.338;2022-09-17T07:01:55;10.20;31.70
20231;DHT22;10274;49.022;9.338;2022-09-17T07:04:23;10.10;87.80
20231;DHT22;10274;49.022;9.338;2022-09-17T07:06:50;9.90;96.60
20231;DHT22;10274;49.022;9.338;2022-09-17T07:09:17;9.90;99.90
20231;DHT22;10274;49.022;9.338;2022-09-17T07:11:43;9.80;99.90
20231;DHT22;10274;49.022;9.338;2022-09-17T07:14:10;9.90;99.90
20231;DHT22;10274;49.022;9.338;2022-09-17T07:16:37;9.80;99.90
20231;DHT22;10274;49.022;9.338;2022-09-17T07:19:04;9.80;99.90
20231;DHT22;10274;49.022;9.338;2022-09-17T07:21:32;9.80;99.90
20231;DHT22;10274;49.022;9.338;2022-09-17T07:23:59;9.80;99.90
20231;DHT22;10274;49.022;9.338;2022-09-17T07:26:26;9.80;99.90
20231;DHT22;10274;49.022;9.338;2022-09-17T07:28:52;9.80;99.90
20231;DHT22;10274;49.022;9.338;2022-09-17T07:31:19;9.80;99.90
20231;DHT22;10274;49.022;9.338;2022-09-17T07:33:46;9.80;99.90
20231;DHT22;10274;49.022;9.338;2022-09-17T07:36:14;9.80;99.90
20231;DHT22;10274;49.022;9.338;2022-09-17T07:38:43;9.80;99.90
20231;DHT22;10274;49.022;9.338;2022-09-17T07:41:12;9.80;99.90
20231;DHT22;10274;49.022;9.338;2022-09-17T07:43:39;9.90;99.90
20231;DHT22;10274;49.022;9.338;2022-09-17T07:46:07;10.00;99.90
20231;DHT22;10274;49.022;9.338;2022-09-17T07:48:35;10.10;99.90
20231;DHT22;10274;49.022;9.338;2022-09-17T07:51:02;10.00;99.90
20231;DHT22;10274;49.022;9.338;2022-09-17T07:53:28;10.10;99.90
20231;DHT22;10274;49.022;9.338;2022-09-17T07:55:58;10.20;99.90
20231;DHT22;10274;49.022;9.338;2022-09-17T07:58:28;10.20;99.90
20231;DHT22;10274;49.022;9.338;2022-09-17T08:00:59;10.20;99.90
20231;DHT22;10274;49.022;9.338;2022-09-17T08:03:26;10.20;99.90
20231;DHT22;10274;49.022;9.338;2022-09-17T08:05:53;10.20;99.90
20231;DHT22;10274;49.022;9.338;2022-09-17T08:08:20;10.30;99.90
20231;DHT22;10274;49.022;9.338;2022-09-17T08:10:46;10.30;99.90
20231;DHT22;10274;49.022;9.338;2022-09-17T08:13:14;10.50;99.90
20231;DHT22;10274;49.022;9.338;2022-09-17T08:15:41;10.50;99.90
20231;DHT22;10274;49.022;9.338;2022-09-17T08:18:08;10.50;99.90
20231;DHT22;10274;49.022;9.338;2022-09-17T08:20:34;10.50;93.60
20231;DHT22;10274;49.022;9.338;2022-09-17T08:23:01;10.60;99.90
20231;DHT22;10274;49.022;9.338;2022-09-17T08:25:27;10.60;99.90
20231;DHT22;10274;49.022;9.338;2022-09-17T08:27:54;10.70;97.90
20231;DHT22;10274;49.022;9.338;2022-09-17T08:30:23;10.80;73.30
20231;DHT22;10274;49.022;9.338;2022-09-17T08:32:49;10.80;41.20
20231;DHT22;10274;49.022;9.338;2022-09-17T08:35:16;11.10;76.60
20231;DHT22;10274;49.022;9.338;2022-09-17T08:37:43;11.20;1.00
20231;DHT22;10274;49.022;9.338;2022-09-17T08:40:15;11.40;1.00
20231;DHT22;10274;49.022;9.338;2022-09-17T08:42:50;11.40;7.00
20231;DHT22;10274;49.022;9.338;2022-09-17T08:45:18;11.50;1.00
20231;DHT22;10274;49.022;9.338;2022-09-17T08:47:48;11.40;1.00
20231;DHT22;10274;49.022;9.338;2022-09-17T08:50:20;11.40;1.00
20231;DHT22;10274;49.022;9.338;2022-09-17T08:53:18;11.50;1.00
20231;DHT22;10274;49.022;9.338;2022-09-17T08:55:52;11.70;1.00
20231;DHT22;10274;49.022;9.338;2022-09-17T08:58:27;11.80;1.00
20231;DHT22;10274;49.022;9.338;2022-09-17T09:01:04;11.70;1.00
20231;DHT22;10274;49.022;9.338;2022-09-17T09:03:47;11.70;1.00
20231;DHT22;10274;49.022;9.338;2022-09-17T09:06:21;11.90;1.00
20231;DHT22;10274;49.022;9.338;2022-09-17T09:08:56;11.70;1.00
20231;DHT22;10274;49.022;9.338;2022-09-17T09:11:26;11.90;1.00
20231;DHT22;10274;49.022;9.338;2022-09-17T09:13:59;12.00;1.00
20231;DHT22;10274;49.022;9.338;2022-09-17T09:16:32;12.10;1.00
20231;DHT22;10274;49.022;9.338;2022-09-17T09:19:17;12.10;1.00
20231;DHT22;10274;49.022;9.338;2022-09-17T09:21:51;12.00;1.00
20231;DHT22;10274;49.022;9.338;2022-09-17T09:24:22;11.90;1.00
20231;DHT22;10274;49.022;9.338;2022-09-17T09:26:58;12.10;1.00
20231;DHT22;10274;49.022;9.338;2022-09-17T09:29:33;12.10;1.00
20231;DHT22;10274;49.022;9.338;2022-09-17T09:32:12;12.00;1.00
20231;DHT22;10274;49.022;9.338;2022-09-17T09:34:46;12.00;1.00
20231;DHT22;10274;49.022;9.338;2022-09-17T09:37:16;11.90;1.00
20231;DHT22;10274;49.022;9.338;2022-09-17T09:39:47;11.90;1.00
20231;DHT22;10274;49.022;9.338;2022-09-17T09:42:20;11.70;1.00
20231;DHT22;10274;49.022;9.338;2022-09-17T09:44:49;11.80;1.00
20231;DHT22;10274;49.022;9.338;2022-09-17T09:47:33;11.80;1.00
20231;DHT22;10274;49.022;9.338;2022-09-17T09:50:17;11.80;1.00
20231;DHT22;10274;49.022;9.338;2022-09-17T09:52:55;11.90;1.00
20231;DHT22;10274;49.022;9.338;2022-09-17T09:55:41;12.00;1.00
20231;DHT22;10274;49.022;9.338;2022-09-17T09:58:21;12.20;1.00
20231;DHT22;10274;49.022;9.338;2022-09-17T10:00:50;13.40;99.90
20231;DHT22;10274;49.022;9.338;2022-09-17T10:03:19;13.90;99.90
20231;DHT22;10274;49.022;9.338;2022-09-17T10:05:55;14.70;30.20
20231;DHT22;10274;49.022;9.338;2022-09-17T10:08:23;15.40;99.90
20231;DHT22;10274;49.022;9.338;2022-09-17T10:10:58;14.70;99.90
20231;DHT22;10274;49.022;9.338;2022-09-17T10:13:27;14.60;99.90
20231;DHT22;10274;49.022;9.338;2022-09-17T10:15:54;14.30;1.00
20231;DHT22;10274;49.022;9.338;2022-09-17T10:18:22;13.90;99.90
20231;DHT22;10274;49.022;9.338;2022-09-17T10:20:56;13.70;99.90
20231;DHT22;10274;49.022;9.338;2022-09-17T10:23:25;13.50;1.00
20231;DHT22;10274;49.022;9.338;2022-09-17T10:25:52;13.70;1.00
20231;DHT22;10274;49.022;9.338;2022-09-17T10:28:31;13.50;1.00
20231;DHT22;10274;49.022;9.338;2022-09-17T10:31:00;13.30;1.00
20231;DHT22;10274;49.022;9.338;2022-09-17T10:33:29;13.10;1.00
20231;DHT22;10274;49.022;9.338;2022-09-17T10:36:00;13.00;1.00
20231;DHT22;10274;49.022;9.338;2022-09-17T10:38:31;12.50;1.00
20231;DHT22;10274;49.022;9.338;2022-09-17T10:41:16;12.20;24.30
20231;DHT22;10274;49.022;9.338;2022-09-17T10:43:43;12.10;62.10
20231;DHT22;10274;49.022;9.338;2022-09-17T10:46:13;12.20;68.20
20231;DHT22;10274;49.022;9.338;2022-09-17T10:48:43;12.30;46.90
20231;DHT22;10274;49.022;9.338;2022-09-17T10:51:19;12.50;40.40
20231;DHT22;10274;49.022;9.338;2022-09-17T10:56:54;12.50;72.80
20231;DHT22;10274;49.022;9.338;2022-09-17T10:59:36;12.30;23.60
20231;DHT22;10274;49.022;9.338;2022-09-17T11:07:41;11.50;72.30
20231;DHT22;10274;49.022;9.338;2022-09-17T11:10:13;11.00;89.80
20231;DHT22;10274;49.022;9.338;2022-09-17T11:12:54;10.90;96.50
20231;DHT22;10274;49.022;9.338;2022-09-17T11:15:43;10.50;76.40
20231;DHT22;10274;49.022;9.338;2022-09-17T11:18:45;10.40;99.90
20231;DHT22;10274;49.022;9.338;2022-09-17T11:21:46;10.40;99.90
20231;DHT22;10274;49.022;9.338;2022-09-17T11:24:46;10.20;99.90
20231;DHT22;10274;49.022;9.338;2022-09-17T11:27:33;10.60;99.90
20231;DHT22;10274;49.022;9.338;2022-09-17T11:30:09;10.60;92.90
20231;DHT22;10274;49.022;9.338;2022-09-17T11:35:34;10.40;99.90
20231;DHT22;10274;49.022;9.338;2022-09-17T11:38:05;10.60;99.90
20231;DHT22;10274;49.022;9.338;2022-09-17T11:40:38;10.90;99.90
20231;DHT22;10274;49.022;9.338;2022-09-17T11:43:13;11.20;99.90
20231;DHT22;10274;49.022;9.338;2022-09-17T11:45:50;11.40;99.90
20231;DHT22;10274;49.022;9.338;2022-09-17T11:48:21;11.50;99.90
20231;DHT22;10274;49.022;9.338;2022-09-17T11:50:52;11.60;99.90
20231;DHT22;10274;49.022;9.338;2022-09-17T11:53:24;12.70;99.90
20231;DHT22;10274;49.022;9.338;2022-09-17T11:55:57;12.90;2.60
20231;DHT22;10274;49.022;9.338;2022-09-17T11:58:33;13.90;50.90
20231;DHT22;10274;49.022;9.338;2022-09-17T12:01:02;14.00;1.00
20231;DHT22;10274;49.022;9.338;2022-09-17T12:03:34;13.50;1.00
20231;DHT22;10274;49.022;9.338;2022-09-17T12:06:06;13.60;9.50
20231;DHT22;10274;49.022;9.338;2022-09-17T12:08:40;13.40;43.90
20231;DHT22;10274;49.022;9.338;2022-09-17T12:11:13;13.30;15.00
20231;DHT22;10274;49.022;9.338;2022-09-17T12:13:45;13.00;46.20
20231;DHT22;10274;49.022;9.338;2022-09-17T12:16:16;13.10;76.10
20231;DHT22;10274;49.022;9.338;2022-09-17T12:18:54;13.10;9.30
20231;DHT22;10274;49.022;9.338;2022-09-17T12:21:26;13.00;63.70
20231;DHT22;10274;49.022;9.338;2022-09-17T12:23:56;12.80;8.30
20231;DHT22;10274;49.022;9.338;2022-09-17T12:26:39;12.80;1.00
20231;DHT22;10274;49.022;9.338;2022-09-17T12:29:20;12.80;1.00
20231;DHT22;10274;49.022;9.338;2022-09-17T12:31:54;12.90;1.00
20231;DHT22;10274;49.022;9.338;2022-09-17T12:34:33;13.10;1.00
20231;DHT22;10274;49.022;9.338;2022-09-17T12:37:09;13.10;1.00
20231;DHT22;10274;49.022;9.338;2022-09-17T12:42:55;13.10;1.00
20231;DHT22;10274;49.022;9.338;2022-09-17T12:45:41;13.30;1.00
20231;DHT22;10274;49.022;9.338;2022-09-17T12:48:25;13.30;1.00
20231;DHT22;10274;49.022;9.338;2022-09-17T12:51:06;13.30;1.00
20231;DHT22;10274;49.022;9.338;2022-09-17T12:53:38;13.30;1.00
20231;DHT22;10274;49.022;9.338;2022-09-17T12:56:16;13.30;1.00
20231;DHT22;10274;49.022;9.338;2022-09-17T12:59:15;13.10;1.00
20231;DHT22;10274;49.022;9.338;2022-09-17T13:01:47;12.80;1.00
20231;DHT22;10274;49.022;9.338;2022-09-17T13:04:30;12.70;1.00
20231;DHT22;10274;49.022;9.338;2022-09-17T13:07:29;12.70;1.00
20231;DHT22;10274;49.022;9.338;2022-09-17T13:10:11;13.00;1.00
20231;DHT22;10274;49.022;9.338;2022-09-17T13:12:47;13.20;1.00
20231;DHT22;10274;49.022;9.338;2022-09-17T13:15:35;13.10;1.00
20231;DHT22;10274;49.022;9.338;2022-09-17T13:18:10;13.20;1.00
20231;DHT22;10274;49.022;9.338;2022-09-17T13:20:42;13.60;1.00
20231;DHT22;10274;49.022;9.338;2022-09-17T13:23:13;13.60;1.00
20231;DHT22;10274;49.022;9.338;2022-09-17T13:25:50;13.60;1.00
20231;DHT22;10274;49.022;9.338;2022-09-17T13:28:18;13.50;1.00
20231;DHT22;10274;49.022;9.338;2022-09-17T13:30:56;13.50;99.90
20231;DHT22;10274;49.022;9.338;2022-09-17T13:33:49;13.70;99.90
20231;DHT22;10274;49.022;9.338;2022-09-17T13:36:38;13.90;1.00
20231;DHT22;10274;49.022;9.338;2022-09-17T13:39:07;13.70;1.00
20231;DHT22;10274;49.022;9.338;2022-09-17T13:41:38;13.80;99.90
20231;DHT22;10274;49.022;9.338;2022-09-17T13:44:07;14.70;1.00
20231;DHT22;10274;49.022;9.338;2022-09-17T13:46:37;14.90;1.00
20231;DHT22;10274;49.022;9.338;2022-09-17T13:49:12;15.00;99.90
20231;DHT22;10274;49.022;9.338;2022-09-17T13:51:57;15.50;1.00
20231;DHT22;10274;49.022;9.338;2022-09-17T13:54:36;15.70;99.90
20231;DHT22;10274;49.022;9.338;2022-09-17T13:57:08;16.20;1.00
20231;DHT22;10274;49.022;9.338;2022-09-17T13:59:36;16.40;1.00
20231;DHT22;10274;49.022;9.338;2022-09-17T14:02:28;16.70;1.00
20231;DHT22;10274;49.022;9.338;2022-09-17T14:04:56;16.10;99.90
20231;DHT22;10274;49.022;9.338;2022-09-17T14:07:46;15.50;99.90
20231;DHT22;10274;49.022;9.338;2022-09-17T14:10:38;15.10;99.90
20231;DHT22;10274;49.022;9.338;2022-09-17T14:13:39;15.60;1.00
20231;DHT22;10274;49.022;9.338;2022-09-17T14:16:46;15.40;1.00
20231;DHT22;10274;49.022;9.338;2022-09-17T14:19:28;15.30;1.00
20231;DHT22;10274;49.022;9.338;2022-09-17T14:21:59;14.90;1.00
20231;DHT22;10274;49.022;9.338;2022-09-17T14:24:33;15.30;99.90
20231;DHT22;10274;49.022;9.338;2022-09-17T14:27:14;15.10;99.90
20231;DHT22;10274;49.022;9.338;2022-09-17T14:30:03;15.60;99.90
20231;DHT22;10274;49.022;9.338;2022-09-17T14:32:36;15.30;99.90
20231;DHT22;10274;49.022;9.338;2022-09-17T14:35:15;15.20;99.90
20231;DHT22;10274;49.022;9.338;2022-09-17T14:37:45;15.50;99.90
20231;DHT22;10274;49.022;9.338;2022-09-17T14:40:16;16.00;99.90
20231;DHT22;10274;49.022;9.338;2022-09-17T14:42:44;16.30;99.90
20231;DHT22;10274;49.022;9.338;2022-09-17T14:45:15;16.30;23.20
20231;DHT22;10274;49.022;9.338;2022-09-17T14:47:43;16.00;99.90
20231;DHT22;10274;49.022;9.338;2022-09-17T14:50:21;15.80;78.80
20231;DHT22;10274;49.022;9.338;2022-09-17T14:52:48;15.50;99.90
20231;DHT22;10274;49.022;9.338;2022-09-17T14:55:17;15.50;99.90
20231;DHT22;10274;49.022;9.338;2022-09-17T14:57:46;16.10;83.20
20231;DHT22;10274;49.022;9.338;2022-09-17T15:00:20;16.00;1.00
20231;DHT22;10274;49.022;9.338;2022-09-17T15:02:49;16.10;59.00
20231;DHT22;10274;49.022;9.338;2022-09-17T15:05:21;16.10;91.50
20231;DHT22;10274;49.022;9.338;2022-09-17T15:07:49;16.00;39.70
20231;DHT22;10274;49.022;9.338;2022-09-17T15:10:17;16.50;99.90
20231;DHT22;10274;49.022;9.338;2022-09-17T15:12:45;16.40;96.90
20231;DHT22;10274;49.022;9.338;2022-09-17T15:15:17;16.60;99.90
20231;DHT22;10274;49.022;9.338;2022-09-17T15:17:46;16.80;99.90
20231;DHT22;10274;49.022;9.338;2022-09-17T15:20:16;16.80;1.00
20231;DHT22;10274;49.022;9.338;2022-09-17T15:22:50;16.50;1.00
20231;DHT22;10274;49.022;9.338;2022-09-17T15:25:21;16.80;1.00
20231;DHT22;10274;49.022;9.338;2022-09-17T15:27:51;17.30;1.00
20231;DHT22;10274;49.022;9.338;2022-09-17T15:30:21;17.30;1.00
20231;DHT22;10274;49.022;9.338;2022-09-17T15:32:49;16.60;1.00
20231;DHT22;10274;49.022;9.338;2022-09-17T15:35:20;16.70;1.00
20231;DHT22;10274;49.022;9.338;2022-09-17T15:37:49;16.50;1.00
20231;DHT22;10274;49.022;9.338;2022-09-17T15:40:24;16.20;1.00
20231;DHT22;10274;49.022;9.338;2022-09-17T15:42:56;16.00;1.00
20231;DHT22;10274;49.022;9.338;2022-09-17T15:45:26;16.40;1.00
20231;DHT22;10274;49.022;9.338;2022-09-17T15:47:57;16.20;1.00
20231;DHT22;10274;49.022;9.338;2022-09-17T15:50:25;16.40;1.00
20231;DHT22;10274;49.022;9.338;2022-09-17T15:53:11;16.40;1.00
20231;DHT22;10274;49.022;9.338;2022-09-17T15:55:39;16.10;1.00
20231;DHT22;10274;49.022;9.338;2022-09-17T15:58:22;16.00;1.00
20231;DHT22;10274;49.022;9.338;2022-09-17T16:04:17;15.80;1.00
20231;DHT22;10274;49.022;9.338;2022-09-17T16:07:01;15.80;1.00
20231;DHT22;10274;49.022;9.338;2022-09-17T16:09:45;15.60;1.00
20231;DHT22;10274;49.022;9.338;2022-09-17T16:12:15;15.20;1.00
20231;DHT22;10274;49.022;9.338;2022-09-17T16:14:44;15.00;1.00
20231;DHT22;10274;49.022;9.338;2022-09-17T16:17:25;14.80;1.00
20231;DHT22;10274;49.022;9.338;2022-09-17T16:19:54;14.80;23.30
20231;DHT22;10274;49.022;9.338;2022-09-17T16:22:21;14.70;1.00
20231;DHT22;10274;49.022;9.338;2022-09-17T16:24:49;14.60;99.90
20231;DHT22;10274;49.022;9.338;2022-09-17T16:27:21;14.50;99.90
20231;DHT22;10274;49.022;9.338;2022-09-17T16:29:50;14.40;99.90
20231;DHT22;10274;49.022;9.338;2022-09-17T16:32:18;14.40;1.00
20231;DHT22;10274;49.022;9.338;2022-09-17T16:34:45;14.20;1.00